Time;durP1;ratioP1;P1;durP2;ratioP2;P2;SDS_P1;SDS_P2;PMS_P1;PMS_P2;Temp;Humidity;BMP_temperature;BMP_pressure;BME280_temperature;BME280_humidity;BME280_pressure;Samples;Min_cycle;Max_cycle;Signal;HPM_P1;HPM_P2
2023/08/03 04:02:24;;;;;;;0.90;0.80;;;17.50;97.30;;;;;;5136236;23;20537;-89
2023/08/03 04:04:50;;;;;;;1.70;1.57;;;17.50;97.30;;;;;;4955749;28;20447;-89
2023/08/03 04:07:15;;;;;;;1.00;0.90;;;17.50;97.30;;;;;;4955454;29;20190;-89
2023/08/03 04:09:41;;;;;;;1.17;1.17;;;17.50;97.30;;;;;;4956045;28;20230;-89
2023/08/03 04:12:11;;;;;;;0.80;0.70;;;17.60;97.30;;;;;;4956387;28;20203;-90
2023/08/03 04:14:37;;;;;;;1.20;1.10;;;17.60;97.30;;;;;;4956496;28;20715;-90
2023/08/03 04:17:02;;;;;;;1.10;1.00;;;17.70;97.30;;;;;;4955466;28;20426;-89
2023/08/03 04:19:28;;;;;;;0.90;0.80;;;17.70;97.30;;;;;;4955511;28;20653;-89
2023/08/03 04:21:53;;;;;;;1.20;1.10;;;17.70;97.30;;;;;;4949305;23;20739;-75
2023/08/03 04:24:19;;;;;;;0.90;0.80;;;17.70;97.30;;;;;;4930688;29;20271;-75
2023/08/03 04:26:44;;;;;;;5.90;0.97;;;17.70;97.30;;;;;;4931519;29;20172;-73
2023/08/03 04:29:10;;;;;;;5.03;1.50;;;17.80;97.30;;;;;;4932266;29;20856;-74
2023/08/03 04:31:35;;;;;;;1.83;1.33;;;17.80;97.30;;;;;;4919468;29;20223;-74
2023/08/03 04:34:01;;;;;;;1.10;1.00;;;17.80;97.30;;;;;;4913945;29;20739;-74
2023/08/03 04:36:27;;;;;;;2.30;1.67;;;17.80;97.30;;;;;;4914968;29;20288;-73
2023/08/03 04:38:52;;;;;;;1.43;0.93;;;17.80;97.30;;;;;;4914150;29;20188;-73
2023/08/03 04:41:20;;;;;;;1.00;0.90;;;17.80;97.30;;;;;;4913481;29;20384;-73
2023/08/03 04:43:46;;;;;;;7.67;1.57;;;17.80;97.30;;;;;;4914048;29;20724;-69
2023/08/03 04:46:11;;;;;;;1.90;1.27;;;17.80;97.30;;;;;;4914640;29;20531;-72
2023/08/03 04:48:37;;;;;;;5.27;1.13;;;17.80;97.30;;;;;;4897818;29;20192;-70
2023/08/03 04:51:02;;;;;;;1.03;0.93;;;17.80;97.30;;;;;;4915049;29;20204;-71
2023/08/03 04:53:28;;;;;;;1.03;0.97;;;17.80;97.30;;;;;;4913318;29;20218;-73
2023/08/03 04:55:53;;;;;;;0.90;0.80;;;17.80;97.30;;;;;;4914434;29;20196;-73
2023/08/03 04:58:19;;;;;;;1.00;0.90;;;17.80;97.30;;;;;;4912648;29;20392;-73
2023/08/03 05:00:44;;;;;;;7.30;1.60;;;17.90;97.30;;;;;;4914185;29;20207;-73
2023/08/03 05:03:10;;;;;;;1.03;1.00;;;17.90;97.30;;;;;;4913161;29;20189;-71
2023/08/03 05:05:35;;;;;;;1.00;0.90;;;17.90;97.30;;;;;;4912875;29;20208;-71
2023/08/03 05:08:01;;;;;;;0.90;0.80;;;18.00;97.30;;;;;;4913264;29;20267;-66
2023/08/03 05:10:27;;;;;;;1.00;0.90;;;18.00;97.30;;;;;;4914398;29;20267;-71
2023/08/03 05:12:52;;;;;;;0.90;0.90;;;18.00;97.30;;;;;;4914269;29;20208;-70
2023/08/03 05:15:19;;;;;;;1.10;1.00;;;18.00;97.30;;;;;;4912850;29;20693;-72
2023/08/03 05:17:46;;;;;;;1.00;0.80;;;18.10;97.30;;;;;;4914334;29;20185;-70
2023/08/03 05:20:13;;;;;;;0.90;0.80;;;18.10;97.30;;;;;;4914271;29;20424;-73
2023/08/03 05:22:38;;;;;;;1.47;1.37;;;18.10;97.30;;;;;;4912767;29;21008;-73
2023/08/03 05:25:04;;;;;;;1.10;1.00;;;18.20;97.30;;;;;;4913231;29;20464;-72
2023/08/03 05:27:30;;;;;;;2.20;1.37;;;18.20;97.30;;;;;;4912441;29;20179;-70
2023/08/03 05:29:58;;;;;;;1.30;1.10;;;18.30;97.30;;;;;;4913101;29;20649;-72
2023/08/03 05:32:25;;;;;;;2.00;0.90;;;18.30;97.30;;;;;;4913869;29;20569;-72
2023/08/03 05:34:51;;;;;;;0.90;0.80;;;18.30;97.30;;;;;;4912939;29;20460;-71
2023/08/03 05:37:16;;;;;;;1.03;0.93;;;18.30;97.30;;;;;;4914412;29;20866;-71
2023/08/03 05:39:42;;;;;;;3.40;0.83;;;18.30;97.30;;;;;;4914106;29;20691;-71
2023/08/03 05:42:11;;;;;;;1.00;0.90;;;18.40;97.30;;;;;;4912332;29;20200;-71
2023/08/03 05:44:37;;;;;;;0.70;0.70;;;18.40;97.30;;;;;;4914188;29;20185;-70
2023/08/03 05:47:03;;;;;;;1.00;0.90;;;18.40;97.30;;;;;;4911322;29;20487;-69
2023/08/03 05:49:29;;;;;;;4.40;1.13;;;18.50;97.30;;;;;;4913748;29;20177;-68
2023/08/03 05:51:54;;;;;;;1.00;0.90;;;18.50;97.30;;;;;;4910508;29;20212;-69
2023/08/03 05:54:20;;;;;;;2.90;1.33;;;18.60;97.30;;;;;;4913445;29;20212;-69
2023/08/03 05:56:46;;;;;;;1.40;1.30;;;18.70;97.30;;;;;;4913246;29;20187;-70
2023/08/03 05:59:23;;;;;;;0.90;0.80;;;18.70;97.30;;;;;;4913521;29;20648;-72
2023/08/03 06:01:50;;;;;;;1.20;1.10;;;18.80;97.30;;;;;;4912010;29;20451;-72
2023/08/03 06:04:16;;;;;;;0.90;0.80;;;18.80;97.30;;;;;;4912215;29;20437;-74
2023/08/03 06:06:43;;;;;;;1.00;0.90;;;18.90;97.30;;;;;;4913328;29;20448;-64
2023/08/03 06:09:11;;;;;;;0.83;0.77;;;19.00;97.30;;;;;;4911951;29;20729;-71
2023/08/03 06:11:38;;;;;;;1.00;0.90;;;19.00;97.30;;;;;;4911503;29;20455;-71
2023/08/03 06:14:04;;;;;;;0.90;0.80;;;19.00;97.30;;;;;;4911998;29;20468;-67
2023/08/03 06:16:30;;;;;;;0.70;0.70;;;19.00;97.30;;;;;;4913532;29;20512;-72
2023/08/03 06:19:00;;;;;;;0.77;0.70;;;19.00;97.30;;;;;;4913322;29;20835;-71
2023/08/03 06:21:27;;;;;;;2.33;1.17;;;19.10;97.30;;;;;;4911616;29;20235;-69
2023/08/03 06:23:55;;;;;;;1.00;0.90;;;19.10;97.30;;;;;;4911917;29;20451;-70
2023/08/03 06:26:21;;;;;;;1.00;0.90;;;19.10;97.30;;;;;;4911865;29;20960;-76
2023/08/03 06:28:50;;;;;;;1.17;1.13;;;19.10;97.30;;;;;;4896266;29;20512;-68
2023/08/03 06:31:19;;;;;;;1.10;0.93;;;19.10;97.30;;;;;;4912986;29;20441;-73
2023/08/03 06:33:47;;;;;;;0.70;0.70;;;19.20;97.30;;;;;;4911860;29;20522;-68
2023/08/03 06:36:20;;;;;;;1.03;0.93;;;19.20;97.30;;;;;;4913220;29;20431;-71
2023/08/03 06:38:47;;;;;;;0.87;0.77;;;19.30;97.30;;;;;;4896578;29;20424;-70
2023/08/03 06:41:13;;;;;;;1.00;0.90;;;19.30;97.30;;;;;;4911620;29;20447;-72
2023/08/03 06:43:39;;;;;;;1.20;0.87;;;19.40;97.30;;;;;;4911622;29;20491;-68
2023/08/03 06:46:05;;;;;;;0.93;0.83;;;19.40;97.30;;;;;;4911777;29;20965;-70
2023/08/03 06:48:32;;;;;;;0.70;0.70;;;19.40;97.30;;;;;;4911652;29;20505;-69
2023/08/03 06:50:57;;;;;;;1.00;0.90;;;19.50;97.30;;;;;;4913627;29;20879;-70
2023/08/03 06:53:23;;;;;;;1.10;1.00;;;19.50;97.30;;;;;;4911526;29;21004;-68
2023/08/03 06:55:49;;;;;;;0.90;0.80;;;19.50;97.30;;;;;;4913039;29;20246;-65
2023/08/03 06:58:17;;;;;;;0.93;0.83;;;19.50;97.30;;;;;;4911530;29;20181;-66
2023/08/03 07:00:43;;;;;;;2.97;0.87;;;19.60;97.30;;;;;;4911609;29;20580;-70
2023/08/03 07:03:09;;;;;;;1.00;0.90;;;19.60;97.30;;;;;;4904824;29;20447;-70
2023/08/03 07:05:35;;;;;;;0.90;0.80;;;19.60;97.10;;;;;;4911675;29;20189;-67
2023/08/03 07:08:00;;;;;;;0.77;0.73;;;19.60;97.00;;;;;;4909961;29;20439;-65
2023/08/03 07:10:26;;;;;;;3.57;0.93;;;19.70;97.30;;;;;;4912281;29;20244;-69
2023/08/03 07:12:52;;;;;;;0.90;0.80;;;19.70;97.30;;;;;;4911165;29;20227;-66
2023/08/03 07:15:18;;;;;;;0.90;0.80;;;19.80;97.10;;;;;;4911485;29;20431;-71
2023/08/03 07:17:44;;;;;;;0.80;0.73;;;19.80;97.10;;;;;;4911298;29;20432;-67
2023/08/03 07:20:11;;;;;;;0.70;0.70;;;19.90;97.10;;;;;;4911530;29;20248;-65
2023/08/03 07:22:36;;;;;;;0.90;0.80;;;19.90;96.80;;;;;;4910522;29;20580;-68
2023/08/03 07:25:03;;;;;;;1.47;1.37;;;19.90;96.80;;;;;;4911148;29;20981;-69
2023/08/03 07:27:29;;;;;;;1.10;0.90;;;19.90;96.90;;;;;;4910690;29;20532;-66
2023/08/03 07:29:54;;;;;;;0.87;0.80;;;19.90;97.00;;;;;;4909461;29;20492;-67
2023/08/03 07:32:20;;;;;;;1.00;0.90;;;19.90;97.20;;;;;;4910046;29;20208;-70
2023/08/03 07:34:45;;;;;;;0.90;0.80;;;20.00;97.20;;;;;;4910266;29;20307;-69
2023/08/03 07:37:11;;;;;;;0.70;0.70;;;20.00;96.70;;;;;;4908646;29;20177;-65
2023/08/03 07:39:37;;;;;;;0.90;0.80;;;20.00;96.60;;;;;;4908749;29;20192;-68
2023/08/03 07:42:02;;;;;;;0.77;0.70;;;20.00;96.80;;;;;;4910321;29;20665;-66
2023/08/03 07:44:28;;;;;;;1.87;1.77;;;20.10;96.90;;;;;;4911617;29;20192;-75
2023/08/03 07:46:54;;;;;;;0.90;0.80;;;20.10;96.90;;;;;;4912245;29;20184;-65
2023/08/03 07:49:20;;;;;;;0.90;0.80;;;20.10;97.10;;;;;;4910600;29;20246;-68
2023/08/03 07:51:47;;;;;;;0.70;0.70;;;20.10;96.60;;;;;;4911066;29;20260;-72
2023/08/03 07:54:13;;;;;;;1.07;0.97;;;20.10;96.60;;;;;;4910544;29;20464;-71
2023/08/03 07:56:39;;;;;;;1.10;1.03;;;20.10;96.20;;;;;;4910923;29;21379;-67
2023/08/03 07:59:05;;;;;;;1.47;1.20;;;20.10;96.30;;;;;;4910646;29;20515;-72
2023/08/03 08:01:31;;;;;;;2.13;1.53;;;20.10;96.10;;;;;;4910959;29;20280;-67
2023/08/03 08:03:56;;;;;;;1.10;1.00;;;20.10;96.10;;;;;;4911062;29;20337;-66
2023/08/03 08:06:22;;;;;;;0.90;0.80;;;20.10;95.90;;;;;;4912313;29;20968;-70
2023/08/03 08:08:50;;;;;;;1.00;0.90;;;20.10;96.20;;;;;;4910736;29;20276;-69
2023/08/03 08:11:17;;;;;;;1.10;1.00;;;20.10;96.40;;;;;;4912154;29;20235;-70
2023/08/03 08:13:43;;;;;;;0.97;0.87;;;20.10;95.40;;;;;;4910635;29;20484;-66
2023/08/03 08:16:14;;;;;;;3.27;1.03;;;20.10;95.60;;;;;;4912064;29;20420;-65
2023/08/03 08:18:40;;;;;;;0.90;0.80;;;20.10;95.30;;;;;;4911960;29;20456;-78
2023/08/03 08:21:08;;;;;;;0.70;0.70;;;20.20;95.20;;;;;;4908869;29;20533;-68
2023/08/03 08:23:34;;;;;;;0.90;0.80;;;20.20;95.60;;;;;;4910272;29;20444;-65
2023/08/03 08:26:00;;;;;;;0.90;0.80;;;20.20;95.60;;;;;;4910536;29;20508;-65
2023/08/03 08:28:26;;;;;;;0.90;0.80;;;20.20;95.00;;;;;;4909799;29;20813;-66
2023/08/03 08:30:52;;;;;;;0.90;0.80;;;20.20;94.20;;;;;;4911768;29;20295;-65
2023/08/03 08:33:19;;;;;;;6.87;1.00;;;20.20;93.90;;;;;;4913105;29;20564;-68
2023/08/03 08:35:46;;;;;;;0.90;0.80;;;20.20;94.40;;;;;;4915062;29;20203;-66
2023/08/03 08:38:12;;;;;;;0.70;0.70;;;20.20;94.10;;;;;;4911456;29;21036;-67
2023/08/03 08:40:39;;;;;;;2.80;1.03;;;20.10;94.30;;;;;;4914908;29;20527;-70
2023/08/03 08:43:06;;;;;;;0.90;0.80;;;20.10;94.30;;;;;;4913411;29;20540;-70
2023/08/03 08:45:36;;;;;;;0.80;0.70;;;20.10;94.10;;;;;;4913476;29;20433;-72
2023/08/03 08:48:04;;;;;;;0.73;0.70;;;20.10;93.90;;;;;;4913695;29;20504;-69
2023/08/03 08:50:32;;;;;;;0.83;0.77;;;20.10;94.40;;;;;;4914733;29;20448;-70
2023/08/03 08:52:58;;;;;;;0.90;0.80;;;20.10;94.50;;;;;;4914540;29;20532;-71
2023/08/03 08:55:29;;;;;;;1.00;0.90;;;20.20;94.60;;;;;;4915365;29;20420;-70
2023/08/03 08:57:56;;;;;;;0.87;0.77;;;20.20;94.40;;;;;;4915236;29;20479;-65
2023/08/03 09:00:25;;;;;;;0.90;0.80;;;20.20;94.40;;;;;;4914855;29;20449;-70
2023/08/03 09:02:56;;;;;;;0.90;0.80;;;20.20;94.20;;;;;;4905870;29;20459;-69
2023/08/03 09:05:25;;;;;;;1.00;0.90;;;20.20;94.40;;;;;;4914947;29;20440;-70
2023/08/03 09:08:02;;;;;;;1.47;1.20;;;20.20;94.10;;;;;;4913455;29;20468;-68
2023/08/03 09:10:28;;;;;;;1.00;0.90;;;20.30;94.00;;;;;;4913089;29;20570;-70
2023/08/03 09:12:55;;;;;;;1.00;0.90;;;20.30;94.10;;;;;;4914576;29;20465;-66
2023/08/03 09:15:47;;;;;;;0.90;0.80;;;20.40;94.50;;;;;;4913019;29;20428;-67
2023/08/03 09:18:14;;;;;;;0.90;0.80;;;20.50;93.60;;;;;;4893035;29;20428;-70
2023/08/03 09:20:40;;;;;;;0.90;0.80;;;20.50;93.70;;;;;;4914565;29;20944;-70
2023/08/03 09:23:05;;;;;;;0.87;0.77;;;20.60;93.50;;;;;;4913100;29;20490;-83
2023/08/03 09:25:31;;;;;;;0.80;0.70;;;20.60;93.50;;;;;;4913292;29;20771;-67
2023/08/03 09:27:57;;;;;;;0.90;0.80;;;20.60;93.70;;;;;;4913184;29;20696;-65
2023/08/03 09:30:24;;;;;;;0.70;0.70;;;20.60;93.20;;;;;;4913143;29;20240;-70
2023/08/03 09:32:50;;;;;;;0.90;0.80;;;20.70;93.30;;;;;;4914202;29;20252;-65
2023/08/03 09:35:22;;;;;;;1.10;1.00;;;20.70;92.40;;;;;;4912955;29;20429;-66
2023/08/03 09:37:49;;;;;;;0.90;0.80;;;20.80;92.80;;;;;;4914443;29;20943;-70
2023/08/03 09:40:17;;;;;;;1.00;0.90;;;20.80;93.00;;;;;;4897145;29;20437;-67
2023/08/03 09:42:43;;;;;;;0.83;0.77;;;20.80;92.60;;;;;;4914179;29;20431;-75
2023/08/03 09:45:09;;;;;;;0.70;0.70;;;20.90;92.90;;;;;;4913159;29;20433;-69
2023/08/03 09:47:36;;;;;;;0.90;0.80;;;21.00;92.30;;;;;;4910924;29;20428;-70
2023/08/03 09:50:02;;;;;;;0.80;0.70;;;21.00;92.40;;;;;;4912260;29;20794;-66
2023/08/03 09:52:29;;;;;;;0.90;0.80;;;21.00;91.50;;;;;;4911056;29;20477;-71
2023/08/03 09:55:00;;;;;;;1.93;0.80;;;21.10;91.80;;;;;;4913625;29;20855;-64
2023/08/03 09:57:32;;;;;;;0.90;0.80;;;21.10;92.60;;;;;;4912637;29;20424;-67
2023/08/03 10:00:06;;;;;;;0.80;0.70;;;21.10;91.80;;;;;;4905440;29;20428;-67
2023/08/03 10:02:39;;;;;;;1.10;1.00;;;21.10;92.00;;;;;;4913878;29;20420;-74
2023/08/03 10:05:09;;;;;;;0.90;0.80;;;21.10;91.60;;;;;;4914001;29;20493;-69
2023/08/03 10:07:41;;;;;;;0.80;0.70;;;21.10;91.90;;;;;;4913633;29;20417;-66
2023/08/03 10:10:09;;;;;;;1.10;1.00;;;21.10;91.60;;;;;;4913837;29;20463;-65
2023/08/03 10:12:49;;;;;;;1.00;1.00;;;21.00;92.00;;;;;;4912084;29;20436;-70
2023/08/03 10:15:16;;;;;;;0.90;0.80;;;21.00;92.60;;;;;;4912324;29;20719;-67
2023/08/03 10:17:46;;;;;;;0.90;0.80;;;21.00;92.70;;;;;;4914099;29;20464;-66
2023/08/03 10:20:12;;;;;;;0.70;0.70;;;21.00;92.60;;;;;;4912271;29;20459;-69
2023/08/03 10:22:58;;;;;;;0.90;0.80;;;21.00;92.40;;;;;;4912619;29;20469;-67
2023/08/03 10:25:24;;;;;;;0.73;0.70;;;21.00;92.20;;;;;;4913432;29;20508;-67
2023/08/03 10:28:12;;;;;;;0.90;0.80;;;21.00;92.50;;;;;;4913494;29;20460;-65
2023/08/03 10:31:01;;;;;;;0.90;0.80;;;21.00;92.70;;;;;;4911985;29;20207;-65
2023/08/03 10:33:51;;;;;;;0.90;0.80;;;21.00;92.80;;;;;;4910138;29;20504;-63
2023/08/03 10:36:26;;;;;;;1.00;0.90;;;21.10;92.00;;;;;;4908108;29;20800;-64
2023/08/03 10:38:52;;;;;;;0.83;0.73;;;21.10;92.60;;;;;;4912119;29;20554;-68
2023/08/03 10:41:22;;;;;;;0.90;0.80;;;21.00;92.70;;;;;;4911995;29;20452;-65
2023/08/03 10:44:10;;;;;;;0.67;0.63;;;21.00;92.60;;;;;;4909557;29;20568;-65
2023/08/03 10:46:49;;;;;;;0.80;0.70;;;21.00;92.90;;;;;;4905337;29;20914;-65
2023/08/03 10:49:22;;;;;;;1.00;0.90;;;21.00;93.10;;;;;;4908758;29;20543;-64
2023/08/03 10:51:52;;;;;;;0.97;0.87;;;20.90;92.60;;;;;;4902628;29;20457;-66
2023/08/03 10:54:19;;;;;;;0.80;0.70;;;21.00;92.20;;;;;;4909937;29;20464;-65
2023/08/03 10:57:11;;;;;;;0.90;0.80;;;21.00;92.60;;;;;;4905916;29;20989;-66
2023/08/03 10:59:48;;;;;;;1.00;0.90;;;21.10;93.20;;;;;;4911138;29;20444;-70
2023/08/03 11:02:30;;;;;;;1.33;1.33;;;21.20;92.50;;;;;;4909060;29;20464;-64
2023/08/03 11:04:58;;;;;;;0.90;0.80;;;21.30;92.30;;;;;;4911824;29;20531;-67
2023/08/03 11:07:31;;;;;;;1.90;1.60;;;21.50;92.00;;;;;;4911828;29;20425;-65
2023/08/03 11:09:57;;;;;;;0.90;0.80;;;21.50;91.90;;;;;;4894277;29;20878;-78
2023/08/03 11:12:27;;;;;;;0.97;0.87;;;21.70;91.20;;;;;;4895535;29;20472;-65
2023/08/03 11:14:54;;;;;;;1.00;0.90;;;21.90;91.00;;;;;;4910940;29;20220;-71
2023/08/03 11:17:31;;;;;;;2.97;1.40;;;22.10;89.90;;;;;;4910714;29;20430;-65
2023/08/03 11:20:00;;;;;;;1.10;1.00;;;22.10;89.70;;;;;;4910165;29;20436;-69
2023/08/03 11:22:26;;;;;;;1.00;0.90;;;22.00;90.90;;;;;;4909598;29;20519;-68
2023/08/03 11:24:54;;;;;;;0.80;0.70;;;21.90;92.10;;;;;;4908179;29;20425;-74
2023/08/03 11:27:22;;;;;;;1.00;0.90;;;21.80;91.70;;;;;;4909179;29;20203;-70
2023/08/03 11:29:48;;;;;;;0.90;0.80;;;21.80;91.50;;;;;;4908133;29;20429;-66
2023/08/03 11:32:28;;;;;;;0.90;0.80;;;21.90;91.00;;;;;;4912232;29;20535;-67
2023/08/03 11:35:04;;;;;;;0.90;0.80;;;21.90;89.90;;;;;;4910720;29;20839;-78
2023/08/03 11:37:31;;;;;;;0.90;0.80;;;21.90;89.80;;;;;;4927340;29;20443;-64
2023/08/03 11:39:58;;;;;;;0.90;0.80;;;22.00;90.70;;;;;;4911981;29;20464;-71
2023/08/03 11:42:24;;;;;;;0.77;0.73;;;22.20;91.40;;;;;;4911425;29;20483;-70
2023/08/03 11:44:50;;;;;;;0.90;0.80;;;22.40;89.50;;;;;;4910533;29;20468;-66
2023/08/03 11:47:15;;;;;;;0.90;0.80;;;22.30;89.30;;;;;;4911174;29;20452;-67
2023/08/03 11:49:41;;;;;;;0.70;0.70;;;22.20;88.60;;;;;;4912628;29;20225;-67
2023/08/03 11:52:07;;;;;;;1.17;1.07;;;22.20;89.50;;;;;;4912009;29;20212;-71
2023/08/03 11:54:34;;;;;;;0.70;0.70;;;22.20;89.10;;;;;;4912156;29;20215;-71
2023/08/03 11:59:46;;;;;;;0.90;0.80;;;22.60;88.40;;;;;;4912619;29;20503;-64
2023/08/03 12:02:12;;;;;;;1.00;0.90;;;22.70;87.30;;;;;;4910703;29;20449;-71
2023/08/03 12:04:39;;;;;;;0.93;0.83;;;22.80;88.80;;;;;;4910780;29;20496;-70
2023/08/03 12:07:05;;;;;;;0.90;0.80;;;23.00;89.60;;;;;;4912211;29;20511;-70
2023/08/03 12:09:39;;;;;;;0.80;0.70;;;23.30;87.40;;;;;;4914077;29;20515;-68
2023/08/03 12:12:11;;;;;;;0.90;0.80;;;23.40;86.80;;;;;;4914421;29;20531;-71
2023/08/03 12:14:37;;;;;;;0.80;0.70;;;23.20;86.90;;;;;;4910984;29;21016;-67
2023/08/03 12:17:09;;;;;;;0.83;0.77;;;23.00;87.00;;;;;;4914337;29;20456;-70
2023/08/03 12:19:34;;;;;;;0.90;0.80;;;22.80;86.80;;;;;;4914131;29;20835;-68
2023/08/03 12:22:01;;;;;;;1.10;0.80;;;22.60;87.40;;;;;;4914905;29;20464;-66
2023/08/03 12:24:27;;;;;;;1.03;0.93;;;22.50;87.50;;;;;;4914008;29;20195;-66
2023/08/03 12:26:53;;;;;;;0.73;0.70;;;22.40;87.70;;;;;;4913738;29;20467;-63
2023/08/03 12:29:19;;;;;;;0.90;0.80;;;22.30;88.00;;;;;;4914305;29;20467;-65
2023/08/03 12:31:44;;;;;;;0.80;0.70;;;22.20;87.80;;;;;;4911059;29;20209;-68
2023/08/03 12:34:10;;;;;;;0.90;0.80;;;22.20;87.60;;;;;;4912606;29;20478;-68
2023/08/03 12:36:35;;;;;;;1.00;0.90;;;22.20;88.00;;;;;;4918300;29;20560;-68
2023/08/03 12:39:01;;;;;;;0.90;0.80;;;22.20;88.20;;;;;;4911723;29;20563;-70
2023/08/03 12:41:27;;;;;;;2.50;1.00;;;22.20;88.40;;;;;;4911872;29;20234;-68
2023/08/03 12:43:52;;;;;;;0.90;0.80;;;22.20;88.70;;;;;;4908663;29;20184;-65
2023/08/03 12:46:18;;;;;;;2.20;1.90;;;22.10;88.30;;;;;;4912142;29;20188;-70
2023/08/03 12:48:44;;;;;;;1.00;0.90;;;22.00;88.10;;;;;;4911812;29;20181;-66
2023/08/03 12:51:09;;;;;;;1.43;1.17;;;22.00;88.70;;;;;;4911718;29;20212;-67
2023/08/03 12:53:37;;;;;;;1.30;1.20;;;21.90;88.50;;;;;;4908353;29;20964;-72
2023/08/03 12:56:03;;;;;;;0.70;0.70;;;22.00;89.20;;;;;;4911515;29;20185;-64
2023/08/03 12:58:29;;;;;;;0.80;0.80;;;22.10;89.00;;;;;;4912133;29;20428;-69
2023/08/03 13:00:57;;;;;;;0.80;0.70;;;22.20;88.70;;;;;;4911292;29;20231;-69
2023/08/03 13:03:23;;;;;;;0.90;0.80;;;22.20;88.30;;;;;;4910983;29;20198;-68
2023/08/03 13:05:49;;;;;;;0.90;0.80;;;22.20;88.50;;;;;;4909987;29;20421;-70
2023/08/03 13:08:16;;;;;;;1.20;1.10;;;22.30;89.00;;;;;;4909348;29;20332;-63
2023/08/03 13:10:44;;;;;;;1.00;0.90;;;22.50;89.30;;;;;;4911169;29;20204;-73
2023/08/03 13:13:10;;;;;;;0.90;0.80;;;22.50;88.30;;;;;;4912032;29;20593;-61
2023/08/03 13:15:35;;;;;;;0.90;0.80;;;22.50;88.20;;;;;;4911598;29;20960;-65
2023/08/03 13:18:01;;;;;;;0.83;0.73;;;22.40;88.30;;;;;;4905875;29;20638;-75
2023/08/03 13:20:27;;;;;;;1.00;0.90;;;22.50;88.40;;;;;;4909691;29;20208;-65
2023/08/03 13:22:53;;;;;;;1.00;0.90;;;22.60;88.30;;;;;;4911022;29;20232;-67
2023/08/03 13:25:18;;;;;;;1.00;0.90;;;22.80;88.50;;;;;;4911661;29;20645;-69
2023/08/03 13:27:44;;;;;;;1.10;1.00;;;23.00;87.80;;;;;;4911759;29;20268;-65
2023/08/03 13:30:09;;;;;;;0.87;0.77;;;23.30;88.10;;;;;;4905456;29;20463;-69
2023/08/03 13:32:41;;;;;;;0.90;0.80;;;23.50;88.30;;;;;;4909094;29;20669;-73
2023/08/03 13:35:07;;;;;;;0.90;0.80;;;23.70;86.00;;;;;;4905563;29;20212;-69
2023/08/03 13:37:33;;;;;;;0.80;0.80;;;23.60;85.60;;;;;;4909340;29;20794;-67
2023/08/03 13:39:58;;;;;;;0.90;0.80;;;23.40;85.70;;;;;;4910204;29;20431;-70
2023/08/03 13:42:24;;;;;;;0.80;0.70;;;23.30;85.60;;;;;;4906821;29;20579;-70
2023/08/03 13:44:49;;;;;;;0.90;0.80;;;23.20;86.50;;;;;;4910518;29;20192;-65
2023/08/03 13:47:15;;;;;;;0.77;0.70;;;23.10;86.40;;;;;;4912259;29;20192;-69
2023/08/03 13:49:40;;;;;;;1.00;0.90;;;23.10;86.80;;;;;;4912043;29;20683;-68
2023/08/03 13:52:06;;;;;;;1.00;0.90;;;23.30;86.40;;;;;;4910509;29;20224;-72
2023/08/03 13:54:32;;;;;;;0.90;0.80;;;23.40;86.00;;;;;;4908792;29;20219;-68
2023/08/03 13:56:58;;;;;;;0.87;0.77;;;23.40;86.40;;;;;;4910911;29;20203;-70
2023/08/03 13:59:24;;;;;;;0.70;0.70;;;23.30;85.70;;;;;;4910854;29;20264;-70
2023/08/03 14:01:51;;;;;;;0.80;0.70;;;23.10;85.60;;;;;;4910683;29;20588;-71
2023/08/03 14:04:18;;;;;;;0.90;0.80;;;23.00;85.70;;;;;;4911514;29;20187;-67
2023/08/03 14:06:44;;;;;;;1.00;0.90;;;23.00;85.80;;;;;;4914479;29;20439;-67
2023/08/03 14:09:11;;;;;;;0.90;0.80;;;23.30;86.20;;;;;;4912790;29;20432;-64
2023/08/03 14:11:40;;;;;;;0.80;0.70;;;23.70;84.80;;;;;;4900473;29;20752;-75
2023/08/03 14:14:07;;;;;;;0.90;0.80;;;24.00;84.80;;;;;;4908295;29;20472;-70
2023/08/03 14:16:34;;;;;;;0.90;0.80;;;24.20;84.20;;;;;;4909714;29;20475;-65
2023/08/03 14:18:59;;;;;;;0.70;0.70;;;24.20;83.40;;;;;;4905226;29;20929;-66
2023/08/03 14:21:25;;;;;;;0.87;0.77;;;24.10;83.70;;;;;;4906775;29;20468;-65
2023/08/03 14:23:51;;;;;;;2.50;1.37;;;24.10;83.60;;;;;;4908001;29;20184;-63
2023/08/03 14:26:16;;;;;;;1.57;1.47;;;24.00;82.80;;;;;;4909560;29;20440;-62
2023/08/03 14:28:42;;;;;;;0.73;0.70;;;23.80;83.50;;;;;;4909826;29;20192;-66
2023/08/03 14:31:08;;;;;;;0.90;0.80;;;23.60;84.40;;;;;;4909405;29;20235;-65
2023/08/03 14:33:34;;;;;;;0.90;0.80;;;23.40;84.10;;;;;;4904378;29;20291;-71
2023/08/03 14:36:00;;;;;;;0.83;0.73;;;23.20;84.50;;;;;;4911472;29;20191;-63
2023/08/03 14:38:27;;;;;;;1.23;1.10;;;23.10;84.70;;;;;;4901222;29;20425;-65
2023/08/03 14:40:52;;;;;;;0.80;0.70;;;23.10;85.00;;;;;;4911840;29;20207;-66
2023/08/03 14:43:18;;;;;;;0.70;0.70;;;23.10;84.90;;;;;;4911545;29;20421;-66
2023/08/03 14:45:51;;;;;;;0.80;0.70;;;23.20;84.90;;;;;;4920043;29;20224;-67
2023/08/03 14:48:17;;;;;;;0.80;0.70;;;23.50;84.40;;;;;;4905654;29;20186;-63
2023/08/03 14:50:43;;;;;;;0.70;0.70;;;23.80;84.90;;;;;;4907598;29;20539;-64
2023/08/03 14:53:08;;;;;;;0.80;0.70;;;24.10;83.50;;;;;;4911231;29;20917;-67
2023/08/03 14:55:34;;;;;;;0.80;0.70;;;24.30;82.90;;;;;;4907291;29;20180;-70
2023/08/03 14:58:00;;;;;;;0.90;0.80;;;24.40;82.10;;;;;;4911227;29;20181;-68
2023/08/03 15:00:25;;;;;;;2.90;0.80;;;24.40;82.30;;;;;;4910074;29;20224;-66
2023/08/03 15:02:51;;;;;;;0.87;0.77;;;24.50;82.40;;;;;;4911459;29;20676;-65
2023/08/03 15:05:16;;;;;;;0.90;0.80;;;24.50;82.80;;;;;;4911427;29;20696;-68
2023/08/03 15:07:42;;;;;;;1.00;0.90;;;24.50;83.50;;;;;;4909978;29;20823;-65
2023/08/03 15:10:09;;;;;;;0.70;0.70;;;24.50;82.70;;;;;;4909451;29;20173;-66
2023/08/03 15:12:34;;;;;;;0.70;0.70;;;24.40;82.90;;;;;;4910568;29;20939;-66
2023/08/03 15:15:00;;;;;;;0.80;0.70;;;24.10;82.70;;;;;;4906406;29;20469;-66
2023/08/03 15:17:26;;;;;;;0.90;0.80;;;23.80;83.20;;;;;;4910322;29;20257;-65
2023/08/03 15:19:52;;;;;;;0.80;0.70;;;23.60;83.50;;;;;;4906267;29;20180;-63
2023/08/03 15:22:17;;;;;;;0.70;0.70;;;23.40;83.70;;;;;;4905972;29;20527;-66
2023/08/03 15:24:47;;;;;;;0.90;0.80;;;23.30;83.80;;;;;;4906390;29;20185;-65
2023/08/03 15:27:13;;;;;;;0.70;0.70;;;23.40;83.50;;;;;;4909977;29;20202;-68
2023/08/03 15:29:39;;;;;;;0.60;0.60;;;23.50;83.80;;;;;;4908598;29;20425;-65
2023/08/03 15:32:05;;;;;;;0.83;0.73;;;23.50;83.80;;;;;;4912053;29;20443;-70
2023/08/03 15:34:30;;;;;;;0.90;0.80;;;23.50;84.00;;;;;;4910281;29;20216;-72
2023/08/03 15:36:56;;;;;;;0.90;0.80;;;23.50;83.80;;;;;;4910518;29;20176;-68
2023/08/03 15:39:22;;;;;;;0.90;0.80;;;23.50;84.40;;;;;;4908599;29;20219;-73
2023/08/03 15:41:47;;;;;;;0.70;0.70;;;23.40;84.00;;;;;;4911020;29;20213;-67
2023/08/03 15:44:13;;;;;;;0.90;0.80;;;23.30;84.40;;;;;;4915765;29;20192;-68
2023/08/03 15:46:38;;;;;;;0.80;0.70;;;23.30;84.50;;;;;;4909983;29;20575;-65
2023/08/03 15:49:04;;;;;;;0.80;0.70;;;23.30;85.20;;;;;;4912930;29;20195;-70
2023/08/03 15:51:31;;;;;;;0.77;0.70;;;23.40;84.50;;;;;;4916999;29;20864;-66
2023/08/03 15:53:56;;;;;;;0.70;0.70;;;23.50;84.60;;;;;;4910488;29;20469;-72
2023/08/03 15:56:22;;;;;;;1.00;0.90;;;23.70;84.80;;;;;;4914770;29;20439;-66
2023/08/03 15:58:48;;;;;;;0.90;0.90;;;23.80;84.40;;;;;;4915279;29;20240;-66
2023/08/03 16:01:13;;;;;;;0.70;0.70;;;23.70;83.50;;;;;;4912677;29;20727;-62
2023/08/03 16:03:39;;;;;;;1.00;0.90;;;23.50;83.70;;;;;;4914166;29;20191;-62
2023/08/03 16:06:07;;;;;;;0.90;0.80;;;23.40;84.60;;;;;;4915236;29;20665;-63
2023/08/03 16:08:33;;;;;;;0.90;0.80;;;23.30;84.60;;;;;;4913577;29;20187;-67
2023/08/03 16:11:00;;;;;;;0.90;0.80;;;23.10;84.60;;;;;;4914019;29;20464;-62
2023/08/03 16:13:28;;;;;;;1.10;1.00;;;23.00;84.70;;;;;;4911351;29;20307;-64
2023/08/03 16:16:04;;;;;;;0.80;0.70;;;22.90;85.20;;;;;;4908520;29;20440;-65
2023/08/03 16:18:31;;;;;;;1.00;0.90;;;22.80;85.70;;;;;;4906011;29;20486;-65
2023/08/03 16:20:57;;;;;;;0.90;0.80;;;22.70;86.10;;;;;;4907789;29;20487;-67
2023/08/03 16:23:26;;;;;;;0.90;0.80;;;22.70;86.00;;;;;;4906234;29;20429;-62
2023/08/03 16:25:51;;;;;;;0.80;0.70;;;22.60;86.00;;;;;;4909096;29;20502;-65
2023/08/03 16:28:17;;;;;;;0.90;0.80;;;22.60;86.10;;;;;;4910487;29;20948;-64
2023/08/03 16:30:42;;;;;;;2.83;1.97;;;22.60;85.60;;;;;;4906647;29;20744;-81
2023/08/03 16:33:08;;;;;;;0.90;0.80;;;22.60;85.80;;;;;;4912791;29;20240;-63
2023/08/03 16:35:38;;;;;;;1.00;0.90;;;22.50;85.70;;;;;;4912353;29;20185;-63
2023/08/03 16:38:05;;;;;;;0.90;0.80;;;22.50;85.80;;;;;;4912975;29;20195;-65
2023/08/03 16:40:31;;;;;;;0.80;0.70;;;22.50;86.00;;;;;;4913548;29;20504;-62
2023/08/03 16:42:56;;;;;;;0.80;0.70;;;22.50;86.00;;;;;;4912349;29;20622;-64
2023/08/03 16:45:22;;;;;;;1.00;0.90;;;22.50;86.10;;;;;;4912045;29;20429;-65
2023/08/03 16:47:48;;;;;;;1.73;0.80;;;22.50;86.00;;;;;;4911579;29;20231;-64
2023/08/03 16:50:14;;;;;;;0.90;0.80;;;22.50;86.30;;;;;;4910538;29;20428;-64
2023/08/03 16:52:40;;;;;;;0.70;0.70;;;22.50;86.20;;;;;;4913328;29;20423;-68